Archival Weather

Republic

Farmingdale, New York (KFRG)

Report from: Saturday, January 27, 2024 10:53 AM EST
Current time: Monday, June 17, 2024 3:18 AM EDT

Current weather – Weather history – Daily summaries
Weather forecast

Temperature6.7°C (44.1°F)
Wind chill5.3°C (41.5°F)
Dew point3.9°C (39.0°F)
Winds 4 kts (2.1 m/s, 4.6 mph) North (10°)
Visibility10 mi. (16.1 km)
Clouds Scattered clouds 1,200 ft. (366 m)
Ceiling: Overcast 3,000 ft. (914 m)
Altimeter30.24 in.Hg (1024 mB)
Relative humidity82 %
Density altitude-1,242 ft. (-378 m)
Sea-level pressure102.4 kPa (1024 mB, 30.24 in.Hg)
Remarks Automated weather observing station without precipitation discriminator
Flight conditions Visual Meteorological Conditions
Raw dataKFRG 271553Z 01004KT 10SM SCT012 OVC030 07/04 A3024 RMK AO1 SLP239 T00670039
An error has occurred. This application may no longer respond until reloaded. Reload 🗙